EPWA/WAW METAR and TAF weather

Enter ICAO airport designator
Station Type Date Time Source
EPWA METAR 2019/12/13 14:00 UTC NOAA

EPWA 131400Z 12015KT 9999 BKN010 03/01 Q0991 BECMG SCT010


Station Type Date Time Source
EPWA Decoded METAR 2019/12/13 14:00 UTC NOAA

Warszawa-Okecie, Poland (EPWA) 52-10N 020-58E 107M
Dec 13, 2019 - 09:00 AM EST / 2019.12.13 1400 UTC
Wind: from the ESE (120 degrees) at 17 MPH (15 KT):0
Visibility: greater than 7 mile(s):0
Sky conditions: mostly cloudy
Temperature: 37 F (3 C)
Dew Point: 33 F (1 C)
Relative Humidity: 86%
Pressure (altimeter): 29.26 in. Hg (0991 hPa)
ob: EPWA 131400Z 12015KT 9999 BKN010 03/01 Q0991 BECMG SCT010
cycle: 14

Station Type Date Time Source
EPWA TAF 2019/12/13 12:33 UTC NOAA

TAF EPWA 131130Z 1312/1412 12012KT 9999 BKN010 PROB40
TEMPO 1312/1318 12015G26KT -RA
BECMG 1313/1316 SCT013 BKN030 PROB40 1407/1412 BKN012

Example: see airport list